sensor_id;sensor_type;location;lat;lon;timestamp;P1;durP1;ratioP1;P2;durP2;ratioP2
64351;SDS011;50680;52.626;-8.668;2023-12-07T13:58:58;3.28;;;3.17;;
64351;SDS011;50680;52.626;-8.668;2023-12-07T14:01:25;2.80;;;2.65;;
64351;SDS011;50680;52.626;-8.668;2023-12-07T14:03:52;4.45;;;2.63;;
64351;SDS011;50680;52.626;-8.668;2023-12-07T14:06:22;2.33;;;2.30;;
64351;SDS011;50680;52.626;-8.668;2023-12-07T14:08:54;2.60;;;2.40;;
64351;SDS011;50680;52.626;-8.668;2023-12-07T14:11:21;2.10;;;2.10;;
64351;SDS011;50680;52.626;-8.668;2023-12-07T14:13:48;1.92;;;1.83;;
64351;SDS011;50680;52.626;-8.668;2023-12-07T14:16:20;4.15;;;3.85;;
64351;SDS011;50680;52.626;-8.668;2023-12-07T14:19:07;1.90;;;1.90;;
64351;SDS011;50680;52.626;-8.668;2023-12-07T14:21:40;2.72;;;2.63;;
64351;SDS011;50680;52.626;-8.668;2023-12-07T14:24:07;2.40;;;2.33;;
64351;SDS011;50680;52.626;-8.668;2023-12-07T14:26:35;1.92;;;1.92;;
64351;SDS011;50680;52.626;-8.668;2023-12-07T14:29:02;5.70;;;2.38;;
64351;SDS011;50680;52.626;-8.668;2023-12-07T14:31:30;2.10;;;2.10;;
64351;SDS011;50680;52.626;-8.668;2023-12-07T14:33:59;2.60;;;2.40;;
64351;SDS011;50680;52.626;-8.668;2023-12-07T14:36:26;1.80;;;1.80;;
64351;SDS011;50680;52.626;-8.668;2023-12-07T14:38:53;4.10;;;4.00;;
64351;SDS011;50680;52.626;-8.668;2023-12-07T14:41:20;3.08;;;2.97;;
64351;SDS011;50680;52.626;-8.668;2023-12-07T14:43:49;3.00;;;2.90;;
64351;SDS011;50680;52.626;-8.668;2023-12-07T14:46:16;2.97;;;2.88;;
64351;SDS011;50680;52.626;-8.668;2023-12-07T14:48:43;2.95;;;2.85;;
64351;SDS011;50680;52.626;-8.668;2023-12-07T14:51:10;2.90;;;2.80;;
64351;SDS011;50680;52.626;-8.668;2023-12-07T14:53:37;2.78;;;2.67;;
64351;SDS011;50680;52.626;-8.668;2023-12-07T14:56:04;5.53;;;3.00;;
64351;SDS011;50680;52.626;-8.668;2023-12-07T14:58:31;2.92;;;2.70;;
64351;SDS011;50680;52.626;-8.668;2023-12-07T15:00:58;35.55;;;9.02;;
64351;SDS011;50680;52.626;-8.668;2023-12-07T15:03:24;26.50;;;6.45;;
64351;SDS011;50680;52.626;-8.668;2023-12-07T15:05:51;26.40;;;6.68;;
64351;SDS011;50680;52.626;-8.668;2023-12-07T15:08:18;30.45;;;7.22;;
64351;SDS011;50680;52.626;-8.668;2023-12-07T15:10:45;32.55;;;7.93;;
64351;SDS011;50680;52.626;-8.668;2023-12-07T15:13:13;32.05;;;7.53;;
64351;SDS011;50680;52.626;-8.668;2023-12-07T15:15:40;24.95;;;6.38;;
64351;SDS011;50680;52.626;-8.668;2023-12-07T15:18:07;33.88;;;6.60;;
64351;SDS011;50680;52.626;-8.668;2023-12-07T15:20:34;22.52;;;6.60;;
64351;SDS011;50680;52.626;-8.668;2023-12-07T15:23:01;30.27;;;7.45;;
64351;SDS011;50680;52.626;-8.668;2023-12-07T15:25:28;24.38;;;6.25;;
64351;SDS011;50680;52.626;-8.668;2023-12-07T15:27:55;23.45;;;6.68;;
64351;SDS011;50680;52.626;-8.668;2023-12-07T15:30:23;23.23;;;7.15;;
64351;SDS011;50680;52.626;-8.668;2023-12-07T15:32:50;16.75;;;6.20;;
64351;SDS011;50680;52.626;-8.668;2023-12-07T15:35:17;21.50;;;6.10;;
64351;SDS011;50680;52.626;-8.668;2023-12-07T15:37:44;16.67;;;5.97;;
64351;SDS011;50680;52.626;-8.668;2023-12-07T15:40:11;14.07;;;5.65;;
64351;SDS011;50680;52.626;-8.668;2023-12-07T15:42:38;13.35;;;5.50;;
64351;SDS011;50680;52.626;-8.668;2023-12-07T15:45:06;17.13;;;5.65;;
64351;SDS011;50680;52.626;-8.668;2023-12-07T15:47:33;17.45;;;5.97;;
64351;SDS011;50680;52.626;-8.668;2023-12-07T15:50:01;18.17;;;6.70;;
64351;SDS011;50680;52.626;-8.668;2023-12-07T15:52:28;15.18;;;6.68;;
64351;SDS011;50680;52.626;-8.668;2023-12-07T15:54:55;14.25;;;7.10;;
64351;SDS011;50680;52.626;-8.668;2023-12-07T15:57:22;16.33;;;7.55;;
64351;SDS011;50680;52.626;-8.668;2023-12-07T15:59:49;18.10;;;7.10;;
64351;SDS011;50680;52.626;-8.668;2023-12-07T16:02:16;19.23;;;7.80;;
64351;SDS011;50680;52.626;-8.668;2023-12-07T16:04:45;19.80;;;6.97;;
64351;SDS011;50680;52.626;-8.668;2023-12-07T16:07:13;21.42;;;7.32;;
64351;SDS011;50680;52.626;-8.668;2023-12-07T16:09:40;14.35;;;7.18;;
64351;SDS011;50680;52.626;-8.668;2023-12-07T16:12:10;23.73;;;8.50;;
64351;SDS011;50680;52.626;-8.668;2023-12-07T16:14:38;17.65;;;7.70;;
64351;SDS011;50680;52.626;-8.668;2023-12-07T16:17:06;19.13;;;7.75;;
64351;SDS011;50680;52.626;-8.668;2023-12-07T16:19:34;16.23;;;7.30;;
64351;SDS011;50680;52.626;-8.668;2023-12-07T16:22:02;16.40;;;8.02;;
64351;SDS011;50680;52.626;-8.668;2023-12-07T16:24:30;17.75;;;6.85;;
64351;SDS011;50680;52.626;-8.668;2023-12-07T16:26:57;19.13;;;6.28;;
64351;SDS011;50680;52.626;-8.668;2023-12-07T16:29:30;16.92;;;6.82;;
64351;SDS011;50680;52.626;-8.668;2023-12-07T16:31:57;13.82;;;6.60;;
64351;SDS011;50680;52.626;-8.668;2023-12-07T16:34:24;18.27;;;6.80;;
64351;SDS011;50680;52.626;-8.668;2023-12-07T16:36:51;20.60;;;6.85;;
64351;SDS011;50680;52.626;-8.668;2023-12-07T16:39:18;19.60;;;6.85;;
64351;SDS011;50680;52.626;-8.668;2023-12-07T16:41:45;17.42;;;6.78;;
64351;SDS011;50680;52.626;-8.668;2023-12-07T16:44:23;15.90;;;6.28;;
64351;SDS011;50680;52.626;-8.668;2023-12-07T16:46:50;14.18;;;6.75;;
64351;SDS011;50680;52.626;-8.668;2023-12-07T16:49:17;16.02;;;5.70;;
64351;SDS011;50680;52.626;-8.668;2023-12-07T16:51:45;14.85;;;6.13;;
64351;SDS011;50680;52.626;-8.668;2023-12-07T16:54:11;13.65;;;6.57;;
64351;SDS011;50680;52.626;-8.668;2023-12-07T16:56:38;14.73;;;5.85;;
64351;SDS011;50680;52.626;-8.668;2023-12-07T16:59:07;14.60;;;5.97;;
64351;SDS011;50680;52.626;-8.668;2023-12-07T17:01:34;18.88;;;6.57;;
64351;SDS011;50680;52.626;-8.668;2023-12-07T17:04:01;22.92;;;6.38;;
64351;SDS011;50680;52.626;-8.668;2023-12-07T17:06:28;14.48;;;5.90;;
64351;SDS011;50680;52.626;-8.668;2023-12-07T17:08:55;22.83;;;5.78;;
64351;SDS011;50680;52.626;-8.668;2023-12-07T17:11:39;17.70;;;5.95;;
64351;SDS011;50680;52.626;-8.668;2023-12-07T17:14:06;18.60;;;6.78;;
64351;SDS011;50680;52.626;-8.668;2023-12-07T17:16:33;16.27;;;6.07;;
64351;SDS011;50680;52.626;-8.668;2023-12-07T17:19:00;14.63;;;6.32;;
64351;SDS011;50680;52.626;-8.668;2023-12-07T17:21:28;15.50;;;6.88;;
64351;SDS011;50680;52.626;-8.668;2023-12-07T17:23:56;16.33;;;6.85;;
64351;SDS011;50680;52.626;-8.668;2023-12-07T17:26:27;12.80;;;5.15;;
64351;SDS011;50680;52.626;-8.668;2023-12-07T17:29:04;12.77;;;5.45;;
64351;SDS011;50680;52.626;-8.668;2023-12-07T17:31:31;16.13;;;6.22;;
64351;SDS011;50680;52.626;-8.668;2023-12-07T17:33:58;12.40;;;5.18;;
64351;SDS011;50680;52.626;-8.668;2023-12-07T17:36:26;12.57;;;5.20;;
64351;SDS011;50680;52.626;-8.668;2023-12-07T17:38:53;13.35;;;5.88;;
64351;SDS011;50680;52.626;-8.668;2023-12-07T17:41:20;8.95;;;4.82;;
64351;SDS011;50680;52.626;-8.668;2023-12-07T17:43:47;11.55;;;4.93;;
64351;SDS011;50680;52.626;-8.668;2023-12-07T17:46:14;14.98;;;5.28;;
64351;SDS011;50680;52.626;-8.668;2023-12-07T17:48:41;19.17;;;4.65;;
64351;SDS011;50680;52.626;-8.668;2023-12-07T17:51:08;17.40;;;5.63;;
64351;SDS011;50680;52.626;-8.668;2023-12-07T17:53:37;15.80;;;5.00;;
64351;SDS011;50680;52.626;-8.668;2023-12-07T17:56:05;13.07;;;6.05;;
64351;SDS011;50680;52.626;-8.668;2023-12-07T17:58:32;14.20;;;5.45;;
64351;SDS011;50680;52.626;-8.668;2023-12-07T18:00:59;11.77;;;5.18;;
64351;SDS011;50680;52.626;-8.668;2023-12-07T18:03:26;15.30;;;5.45;;
64351;SDS011;50680;52.626;-8.668;2023-12-07T18:05:53;13.77;;;4.97;;
64351;SDS011;50680;52.626;-8.668;2023-12-07T18:08:20;10.32;;;4.53;;
64351;SDS011;50680;52.626;-8.668;2023-12-07T18:10:46;14.00;;;4.70;;
64351;SDS011;50680;52.626;-8.668;2023-12-07T18:13:13;14.18;;;5.07;;
64351;SDS011;50680;52.626;-8.668;2023-12-07T18:15:40;12.15;;;5.03;;
64351;SDS011;50680;52.626;-8.668;2023-12-07T18:18:07;13.48;;;5.07;;
64351;SDS011;50680;52.626;-8.668;2023-12-07T18:20:34;15.30;;;4.72;;
64351;SDS011;50680;52.626;-8.668;2023-12-07T18:23:01;10.00;;;3.90;;
64351;SDS011;50680;52.626;-8.668;2023-12-07T18:25:28;13.27;;;4.93;;
64351;SDS011;50680;52.626;-8.668;2023-12-07T18:27:55;10.88;;;4.60;;
64351;SDS011;50680;52.626;-8.668;2023-12-07T18:30:22;16.05;;;5.45;;
64351;SDS011;50680;52.626;-8.668;2023-12-07T18:32:49;10.35;;;4.40;;
64351;SDS011;50680;52.626;-8.668;2023-12-07T18:35:16;8.20;;;4.80;;
64351;SDS011;50680;52.626;-8.668;2023-12-07T18:37:42;10.90;;;4.20;;
64351;SDS011;50680;52.626;-8.668;2023-12-07T18:40:09;14.90;;;4.85;;
64351;SDS011;50680;52.626;-8.668;2023-12-07T18:42:37;9.80;;;4.43;;
64351;SDS011;50680;52.626;-8.668;2023-12-07T18:45:04;13.35;;;4.88;;
64351;SDS011;50680;52.626;-8.668;2023-12-07T18:47:31;12.18;;;4.53;;
64351;SDS011;50680;52.626;-8.668;2023-12-07T18:49:58;11.18;;;4.82;;
64351;SDS011;50680;52.626;-8.668;2023-12-07T18:52:25;11.70;;;3.85;;
64351;SDS011;50680;52.626;-8.668;2023-12-07T18:54:52;8.00;;;4.88;;
64351;SDS011;50680;52.626;-8.668;2023-12-07T18:57:19;10.00;;;4.50;;
64351;SDS011;50680;52.626;-8.668;2023-12-07T18:59:46;7.78;;;4.38;;
64351;SDS011;50680;52.626;-8.668;2023-12-07T19:02:13;8.85;;;3.42;;
64351;SDS011;50680;52.626;-8.668;2023-12-07T19:04:42;9.55;;;3.90;;
64351;SDS011;50680;52.626;-8.668;2023-12-07T19:07:10;6.93;;;4.07;;
64351;SDS011;50680;52.626;-8.668;2023-12-07T19:09:36;5.43;;;3.83;;
64351;SDS011;50680;52.626;-8.668;2023-12-07T19:12:03;6.18;;;3.67;;
64351;SDS011;50680;52.626;-8.668;2023-12-07T19:14:31;6.00;;;3.33;;
64351;SDS011;50680;52.626;-8.668;2023-12-07T19:16:57;5.93;;;3.67;;
64351;SDS011;50680;52.626;-8.668;2023-12-07T19:19:24;4.55;;;2.97;;
64351;SDS011;50680;52.626;-8.668;2023-12-07T19:21:51;5.85;;;3.55;;
64351;SDS011;50680;52.626;-8.668;2023-12-07T19:24:18;3.47;;;3.25;;
64351;SDS011;50680;52.626;-8.668;2023-12-07T19:26:45;3.80;;;3.42;;
64351;SDS011;50680;52.626;-8.668;2023-12-07T19:29:12;4.53;;;3.72;;
64351;SDS011;50680;52.626;-8.668;2023-12-07T19:31:41;6.07;;;3.70;;
64351;SDS011;50680;52.626;-8.668;2023-12-07T19:34:08;6.50;;;3.97;;
64351;SDS011;50680;52.626;-8.668;2023-12-07T19:36:41;6.80;;;4.45;;
64351;SDS011;50680;52.626;-8.668;2023-12-07T19:39:09;10.50;;;4.28;;
64351;SDS011;50680;52.626;-8.668;2023-12-07T19:41:42;7.57;;;4.43;;
64351;SDS011;50680;52.626;-8.668;2023-12-07T19:44:13;6.90;;;4.65;;
64351;SDS011;50680;52.626;-8.668;2023-12-07T19:46:40;7.20;;;4.38;;
64351;SDS011;50680;52.626;-8.668;2023-12-07T19:49:08;8.23;;;4.53;;
64351;SDS011;50680;52.626;-8.668;2023-12-07T19:51:36;7.65;;;4.15;;
64351;SDS011;50680;52.626;-8.668;2023-12-07T19:54:03;9.55;;;4.45;;
64351;SDS011;50680;52.626;-8.668;2023-12-07T19:56:30;7.05;;;3.90;;
64351;SDS011;50680;52.626;-8.668;2023-12-07T19:58:59;7.72;;;4.25;;
64351;SDS011;50680;52.626;-8.668;2023-12-07T20:01:26;6.55;;;3.92;;
64351;SDS011;50680;52.626;-8.668;2023-12-07T20:03:53;8.98;;;3.88;;
64351;SDS011;50680;52.626;-8.668;2023-12-07T20:06:20;7.70;;;3.67;;
64351;SDS011;50680;52.626;-8.668;2023-12-07T20:09:01;5.13;;;3.67;;
64351;SDS011;50680;52.626;-8.668;2023-12-07T20:11:29;4.65;;;3.60;;
64351;SDS011;50680;52.626;-8.668;2023-12-07T20:13:56;8.25;;;4.05;;
64351;SDS011;50680;52.626;-8.668;2023-12-07T20:16:22;10.93;;;3.95;;
64351;SDS011;50680;52.626;-8.668;2023-12-07T20:18:49;7.45;;;3.65;;
64351;SDS011;50680;52.626;-8.668;2023-12-07T20:21:16;11.38;;;3.80;;
64351;SDS011;50680;52.626;-8.668;2023-12-07T20:23:43;8.27;;;3.63;;
64351;SDS011;50680;52.626;-8.668;2023-12-07T20:26:11;7.72;;;4.00;;
64351;SDS011;50680;52.626;-8.668;2023-12-07T20:28:44;10.35;;;3.60;;
64351;SDS011;50680;52.626;-8.668;2023-12-07T20:31:13;8.43;;;4.13;;
64351;SDS011;50680;52.626;-8.668;2023-12-07T20:33:41;9.00;;;4.18;;
64351;SDS011;50680;52.626;-8.668;2023-12-07T20:36:10;11.10;;;4.43;;
64351;SDS011;50680;52.626;-8.668;2023-12-07T20:38:38;14.65;;;4.75;;
64351;SDS011;50680;52.626;-8.668;2023-12-07T20:41:05;7.43;;;4.25;;
64351;SDS011;50680;52.626;-8.668;2023-12-07T20:43:32;9.63;;;4.07;;
64351;SDS011;50680;52.626;-8.668;2023-12-07T20:45:59;10.32;;;3.95;;
64351;SDS011;50680;52.626;-8.668;2023-12-07T20:48:26;6.97;;;4.18;;
64351;SDS011;50680;52.626;-8.668;2023-12-07T20:50:53;8.68;;;3.50;;
64351;SDS011;50680;52.626;-8.668;2023-12-07T20:53:20;8.32;;;3.63;;
64351;SDS011;50680;52.626;-8.668;2023-12-07T20:55:47;11.80;;;3.63;;
64351;SDS011;50680;52.626;-8.668;2023-12-07T20:58:14;11.43;;;3.70;;
64351;SDS011;50680;52.626;-8.668;2023-12-07T21:00:42;9.35;;;3.80;;
64351;SDS011;50680;52.626;-8.668;2023-12-07T21:03:10;8.57;;;3.72;;
64351;SDS011;50680;52.626;-8.668;2023-12-07T21:05:38;8.10;;;3.47;;
64351;SDS011;50680;52.626;-8.668;2023-12-07T21:08:05;8.65;;;3.70;;
64351;SDS011;50680;52.626;-8.668;2023-12-07T21:10:32;8.82;;;3.55;;
64351;SDS011;50680;52.626;-8.668;2023-12-07T21:12:59;12.15;;;4.00;;
64351;SDS011;50680;52.626;-8.668;2023-12-07T21:15:26;9.15;;;4.00;;
64351;SDS011;50680;52.626;-8.668;2023-12-07T21:17:53;11.27;;;4.45;;
64351;SDS011;50680;52.626;-8.668;2023-12-07T21:20:20;10.15;;;4.20;;
64351;SDS011;50680;52.626;-8.668;2023-12-07T21:22:47;12.80;;;4.40;;
64351;SDS011;50680;52.626;-8.668;2023-12-07T21:25:14;13.93;;;4.78;;
64351;SDS011;50680;52.626;-8.668;2023-12-07T21:27:41;10.02;;;4.68;;
64351;SDS011;50680;52.626;-8.668;2023-12-07T21:30:09;11.93;;;4.90;;
64351;SDS011;50680;52.626;-8.668;2023-12-07T21:32:36;11.95;;;4.00;;
64351;SDS011;50680;52.626;-8.668;2023-12-07T21:35:06;10.45;;;4.85;;
64351;SDS011;50680;52.626;-8.668;2023-12-07T21:37:35;9.68;;;3.97;;
64351;SDS011;50680;52.626;-8.668;2023-12-07T21:40:02;10.75;;;3.63;;
64351;SDS011;50680;52.626;-8.668;2023-12-07T21:42:29;10.30;;;3.88;;
64351;SDS011;50680;52.626;-8.668;2023-12-07T21:44:56;12.60;;;3.63;;
64351;SDS011;50680;52.626;-8.668;2023-12-07T21:47:23;11.13;;;4.07;;
64351;SDS011;50680;52.626;-8.668;2023-12-07T21:49:50;6.82;;;3.33;;
64351;SDS011;50680;52.626;-8.668;2023-12-07T21:52:17;5.97;;;3.63;;
64351;SDS011;50680;52.626;-8.668;2023-12-07T21:54:44;8.05;;;3.67;;
64351;SDS011;50680;52.626;-8.668;2023-12-07T21:57:11;5.75;;;3.30;;
64351;SDS011;50680;52.626;-8.668;2023-12-07T21:59:38;8.75;;;3.33;;
64351;SDS011;50680;52.626;-8.668;2023-12-07T22:02:05;7.07;;;3.50;;
64351;SDS011;50680;52.626;-8.668;2023-12-07T22:04:32;5.82;;;3.58;;
64351;SDS011;50680;52.626;-8.668;2023-12-07T22:06:58;7.10;;;3.42;;
64351;SDS011;50680;52.626;-8.668;2023-12-07T22:09:25;9.70;;;3.65;;
64351;SDS011;50680;52.626;-8.668;2023-12-07T22:11:55;9.43;;;3.40;;
64351;SDS011;50680;52.626;-8.668;2023-12-07T22:14:22;9.20;;;3.70;;
64351;SDS011;50680;52.626;-8.668;2023-12-07T22:16:49;6.75;;;3.50;;
64351;SDS011;50680;52.626;-8.668;2023-12-07T22:19:16;7.40;;;3.65;;
64351;SDS011;50680;52.626;-8.668;2023-12-07T22:21:43;10.50;;;4.13;;
64351;SDS011;50680;52.626;-8.668;2023-12-07T22:24:10;10.80;;;3.60;;
64351;SDS011;50680;52.626;-8.668;2023-12-07T22:26:37;10.75;;;3.38;;
64351;SDS011;50680;52.626;-8.668;2023-12-07T22:29:04;8.27;;;3.53;;
64351;SDS011;50680;52.626;-8.668;2023-12-07T22:31:31;11.63;;;3.85;;
64351;SDS011;50680;52.626;-8.668;2023-12-07T22:33:58;12.68;;;4.00;;
64351;SDS011;50680;52.626;-8.668;2023-12-07T22:36:27;11.57;;;3.75;;
64351;SDS011;50680;52.626;-8.668;2023-12-07T22:38:54;9.45;;;3.25;;
64351;SDS011;50680;52.626;-8.668;2023-12-07T22:41:21;10.65;;;4.03;;
64351;SDS011;50680;52.626;-8.668;2023-12-07T22:43:47;13.15;;;4.78;;
64351;SDS011;50680;52.626;-8.668;2023-12-07T22:46:14;12.70;;;4.28;;
64351;SDS011;50680;52.626;-8.668;2023-12-07T22:48:41;12.55;;;4.13;;
64351;SDS011;50680;52.626;-8.668;2023-12-07T22:51:08;14.23;;;4.10;;
64351;SDS011;50680;52.626;-8.668;2023-12-07T22:53:35;16.00;;;4.93;;
64351;SDS011;50680;52.626;-8.668;2023-12-07T22:56:02;17.80;;;5.57;;
64351;SDS011;50680;52.626;-8.668;2023-12-07T22:58:29;13.77;;;4.53;;
64351;SDS011;50680;52.626;-8.668;2023-12-07T23:00:56;18.17;;;4.82;;
64351;SDS011;50680;52.626;-8.668;2023-12-07T23:03:23;20.45;;;5.80;;
64351;SDS011;50680;52.626;-8.668;2023-12-07T23:05:50;14.52;;;4.13;;
64351;SDS011;50680;52.626;-8.668;2023-12-07T23:08:17;18.02;;;4.63;;
64351;SDS011;50680;52.626;-8.668;2023-12-07T23:10:44;20.15;;;4.78;;
64351;SDS011;50680;52.626;-8.668;2023-12-07T23:13:11;14.63;;;4.78;;
64351;SDS011;50680;52.626;-8.668;2023-12-07T23:15:38;16.77;;;4.43;;
64351;SDS011;50680;52.626;-8.668;2023-12-07T23:18:05;15.48;;;4.45;;
64351;SDS011;50680;52.626;-8.668;2023-12-07T23:20:32;19.73;;;5.00;;
64351;SDS011;50680;52.626;-8.668;2023-12-07T23:22:59;19.90;;;4.65;;
64351;SDS011;50680;52.626;-8.668;2023-12-07T23:25:26;13.18;;;5.15;;
64351;SDS011;50680;52.626;-8.668;2023-12-07T23:27:53;24.98;;;5.38;;
64351;SDS011;50680;52.626;-8.668;2023-12-07T23:30:21;18.25;;;5.05;;
64351;SDS011;50680;52.626;-8.668;2023-12-07T23:32:50;18.35;;;5.13;;
64351;SDS011;50680;52.626;-8.668;2023-12-07T23:35:17;16.77;;;4.95;;
64351;SDS011;50680;52.626;-8.668;2023-12-07T23:37:44;27.20;;;5.18;;
64351;SDS011;50680;52.626;-8.668;2023-12-07T23:40:11;20.85;;;5.88;;
64351;SDS011;50680;52.626;-8.668;2023-12-07T23:42:38;24.88;;;5.55;;
64351;SDS011;50680;52.626;-8.668;2023-12-07T23:45:05;21.50;;;5.63;;
64351;SDS011;50680;52.626;-8.668;2023-12-07T23:47:32;19.52;;;5.20;;
64351;SDS011;50680;52.626;-8.668;2023-12-07T23:49:59;22.83;;;5.88;;
64351;SDS011;50680;52.626;-8.668;2023-12-07T23:52:27;20.42;;;4.93;;
64351;SDS011;50680;52.626;-8.668;2023-12-07T23:54:53;22.15;;;5.45;;
64351;SDS011;50680;52.626;-8.668;2023-12-07T23:57:20;22.63;;;5.45;;
64351;SDS011;50680;52.626;-8.668;2023-12-07T23:59:47;17.85;;;4.75;;
